Impacts METAR Board
IDs:

KMEM - Memphis Intl, TN, US

Updated at: 0700 UTC 20 Oct 2018
Potential Impact None Slight Moderate High
Time 19/19Z 19/20Z 19/21Z 19/22Z 19/23Z 20/00Z 20/01Z 20/02Z 20/03Z 20/04Z 20/05Z 20/06Z 20/07Z
Temp70 70 70 68 67 66 65 61 57 57 57 57 56
Dewpt45 45 48 45 48 49 49 51 56 56 57 56 56
Altim30.18 30.15 30.13 30.13 30.13 30.12 30.12 30.12 30.12 30.10 30.11 30.11 30.11
VIS10 10 10 10 10 10 10 4 6 10 7 5 5
CIG220 250 50 47 38 38 33 33 70 48 22 6 6
CoverBKNBKNOVCOVCOVCOVCOVCOVCOVCOVCOVCOVCOVC
FltCatVFRVFRVFRVFRVFRVFRVFRMVFRVFRVFRMVFRIFRIFR
WX--------------RA-RA BR-RA-RA-RA BR-RA BR
WDir2902502502602903103100290250350330310
WSpd6 5 5 4 6 4 5 0 5 3 4 7 5
WGst-- -- -- -- -- -- -- -- -- -- -- -- --
Raw hourly METARs
KMEM 191854Z 29006KT 10SM SCT150 BKN220 21/07 A3018 RMK AO2 SLP218 T02110072
KMEM 191954Z 25005KT 10SM FEW150 SCT200 BKN250 21/07 A3015 RMK AO2 SLP209 T02110072
KMEM 192054Z 25005KT 10SM BKN050 BKN090 OVC200 21/09 A3013 RMK AO2 SLP202 T02110089 56026
KMEM 192154Z 26004KT 10SM SCT038 OVC047 20/07 A3013 RMK AO2 SLP203 T02000072
KMEM 192254Z 29006KT 10SM BKN038 OVC047 19/09 A3013 RMK AO2 SLP201 T01940089
KMEM 192354Z 31004KT 10SM BKN038 OVC047 19/09 A3012 RMK AO2 SLP198 T01890094 10217 20183 58005
KMEM 200054Z 31005KT 10SM BKN033 OVC045 18/09 A3012 RMK AO2 SLP200 T01830094
KMEM 200154Z 00000KT 4SM RA BKN033 OVC048 16/11 A3012 RMK AO2 RAB41 SLP198 P0002 T01610106
KMEM 200254Z 29005KT 6SM -RA BR FEW030 BKN070 OVC095 14/13 A3012 RMK AO2 SLP198 P0006 60008 T01390133 50000
KMEM 200354Z 25003KT 10SM -RA SCT021 BKN048 BKN110 OVC200 14/13 A3010 RMK AO2 SLP191 P0002 T01390133
KMEM 200454Z 35004KT 7SM -RA FEW005 BKN022 OVC100 14/14 A3011 RMK AO2 SLP192 P0002 T01390139
KMEM 200554Z 33007KT 5SM -RA BR OVC006 14/13 A3011 RMK AO2 CIG 005V011 SLP195 P0002 60014 T01390133 10189 20139 402170094 55002
KMEM 200654Z 31005KT 5SM -RA BR BKN006 OVC010 13/13 A3011 RMK AO2 SLP193 P0008 T01330133



Page loaded:  07:28 UTC  |   12:28 AM Pacific  |   01:28 AM Mountain  |   02:28 AM Central  |   03:28 AM Eastern

 

ADVISORIES

FORECASTS

FORECASTS

OBSERVATIONS

USER TOOLS

ABOUT US